sensor_id;sensor_type;location;lat;lon;timestamp;temperature;humidity
6102;DHT22;3081;50.584;7.032;2023-05-29T00:02:07;15.80;99.90
6102;DHT22;3081;50.584;7.032;2023-05-29T00:04:34;15.70;99.90
6102;DHT22;3081;50.584;7.032;2023-05-29T00:07:03;15.70;99.90
6102;DHT22;3081;50.584;7.032;2023-05-29T00:09:30;15.70;99.90
6102;DHT22;3081;50.584;7.032;2023-05-29T00:11:58;15.60;99.90
6102;DHT22;3081;50.584;7.032;2023-05-29T00:14:26;15.50;99.90
6102;DHT22;3081;50.584;7.032;2023-05-29T00:16:53;15.50;99.90
6102;DHT22;3081;50.584;7.032;2023-05-29T00:19:20;15.40;99.90
6102;DHT22;3081;50.584;7.032;2023-05-29T00:21:47;15.40;99.90
6102;DHT22;3081;50.584;7.032;2023-05-29T00:24:14;15.30;99.90
6102;DHT22;3081;50.584;7.032;2023-05-29T00:26:41;15.20;99.90
6102;DHT22;3081;50.584;7.032;2023-05-29T00:29:09;15.10;99.90
6102;DHT22;3081;50.584;7.032;2023-05-29T00:31:36;15.00;99.90
6102;DHT22;3081;50.584;7.032;2023-05-29T00:34:03;15.00;99.90
6102;DHT22;3081;50.584;7.032;2023-05-29T00:36:30;14.90;99.90
6102;DHT22;3081;50.584;7.032;2023-05-29T00:38:57;14.90;99.90
6102;DHT22;3081;50.584;7.032;2023-05-29T00:41:24;14.80;99.90
6102;DHT22;3081;50.584;7.032;2023-05-29T00:43:51;14.80;99.90
6102;DHT22;3081;50.584;7.032;2023-05-29T00:46:20;14.80;99.90
6102;DHT22;3081;50.584;7.032;2023-05-29T00:48:47;14.70;99.90
6102;DHT22;3081;50.584;7.032;2023-05-29T00:51:15;14.60;99.90
6102;DHT22;3081;50.584;7.032;2023-05-29T00:53:43;14.60;99.90
6102;DHT22;3081;50.584;7.032;2023-05-29T00:56:12;14.50;99.90
6102;DHT22;3081;50.584;7.032;2023-05-29T00:58:39;14.50;99.90
6102;DHT22;3081;50.584;7.032;2023-05-29T01:01:08;14.40;99.90
6102;DHT22;3081;50.584;7.032;2023-05-29T01:03:37;14.40;99.90
6102;DHT22;3081;50.584;7.032;2023-05-29T01:06:04;14.50;99.90
6102;DHT22;3081;50.584;7.032;2023-05-29T01:08:31;14.40;99.90
6102;DHT22;3081;50.584;7.032;2023-05-29T01:11:14;14.40;99.90
6102;DHT22;3081;50.584;7.032;2023-05-29T01:13:47;14.30;99.90
6102;DHT22;3081;50.584;7.032;2023-05-29T01:16:20;14.30;99.90
6102;DHT22;3081;50.584;7.032;2023-05-29T01:18:54;14.20;99.90
6102;DHT22;3081;50.584;7.032;2023-05-29T01:21:27;14.20;99.90
6102;DHT22;3081;50.584;7.032;2023-05-29T01:24:03;14.10;99.90
6102;DHT22;3081;50.584;7.032;2023-05-29T01:26:48;14.10;99.90
6102;DHT22;3081;50.584;7.032;2023-05-29T01:29:18;14.10;99.90
6102;DHT22;3081;50.584;7.032;2023-05-29T01:31:46;14.10;99.90
6102;DHT22;3081;50.584;7.032;2023-05-29T01:34:14;14.00;99.90
6102;DHT22;3081;50.584;7.032;2023-05-29T01:36:41;14.00;99.90
6102;DHT22;3081;50.584;7.032;2023-05-29T01:39:08;14.00;99.90
6102;DHT22;3081;50.584;7.032;2023-05-29T01:41:36;14.00;99.90
6102;DHT22;3081;50.584;7.032;2023-05-29T01:44:07;13.90;99.90
6102;DHT22;3081;50.584;7.032;2023-05-29T01:46:36;13.90;99.90
6102;DHT22;3081;50.584;7.032;2023-05-29T01:49:04;13.80;99.90
6102;DHT22;3081;50.584;7.032;2023-05-29T01:51:31;13.80;99.90
6102;DHT22;3081;50.584;7.032;2023-05-29T01:53:59;13.80;99.90
6102;DHT22;3081;50.584;7.032;2023-05-29T01:56:26;13.80;99.90
6102;DHT22;3081;50.584;7.032;2023-05-29T01:58:54;13.80;99.90
6102;DHT22;3081;50.584;7.032;2023-05-29T02:01:23;13.70;99.90
6102;DHT22;3081;50.584;7.032;2023-05-29T02:03:51;13.70;99.90
6102;DHT22;3081;50.584;7.032;2023-05-29T02:06:18;13.70;99.90
6102;DHT22;3081;50.584;7.032;2023-05-29T02:08:45;13.60;99.90
6102;DHT22;3081;50.584;7.032;2023-05-29T02:11:12;13.60;99.90
6102;DHT22;3081;50.584;7.032;2023-05-29T02:13:39;13.60;99.90
6102;DHT22;3081;50.584;7.032;2023-05-29T02:16:06;13.50;99.90
6102;DHT22;3081;50.584;7.032;2023-05-29T02:18:34;13.50;99.90
6102;DHT22;3081;50.584;7.032;2023-05-29T02:21:02;13.40;99.90
6102;DHT22;3081;50.584;7.032;2023-05-29T02:23:29;13.40;99.90
6102;DHT22;3081;50.584;7.032;2023-05-29T02:25:56;13.40;99.90
6102;DHT22;3081;50.584;7.032;2023-05-29T02:28:23;13.40;99.90
6102;DHT22;3081;50.584;7.032;2023-05-29T02:30:50;13.40;99.90
6102;DHT22;3081;50.584;7.032;2023-05-29T02:33:17;13.40;99.90
6102;DHT22;3081;50.584;7.032;2023-05-29T02:35:46;13.40;99.90
6102;DHT22;3081;50.584;7.032;2023-05-29T02:38:13;13.30;99.90
6102;DHT22;3081;50.584;7.032;2023-05-29T02:40:40;13.20;99.90
6102;DHT22;3081;50.584;7.032;2023-05-29T02:43:08;13.20;99.90
6102;DHT22;3081;50.584;7.032;2023-05-29T02:45:35;13.10;99.90
6102;DHT22;3081;50.584;7.032;2023-05-29T02:48:02;13.10;99.90
6102;DHT22;3081;50.584;7.032;2023-05-29T02:50:29;13.10;99.90
6102;DHT22;3081;50.584;7.032;2023-05-29T02:52:58;13.00;99.90
6102;DHT22;3081;50.584;7.032;2023-05-29T02:55:25;13.10;99.90
6102;DHT22;3081;50.584;7.032;2023-05-29T02:57:52;13.10;99.90
6102;DHT22;3081;50.584;7.032;2023-05-29T03:00:20;13.00;99.90
6102;DHT22;3081;50.584;7.032;2023-05-29T03:02:47;13.00;99.90
6102;DHT22;3081;50.584;7.032;2023-05-29T03:05:14;12.90;99.90
6102;DHT22;3081;50.584;7.032;2023-05-29T03:07:42;12.90;99.90
6102;DHT22;3081;50.584;7.032;2023-05-29T03:10:10;12.80;99.90
6102;DHT22;3081;50.584;7.032;2023-05-29T03:12:37;12.80;99.90
6102;DHT22;3081;50.584;7.032;2023-05-29T03:15:05;12.80;99.90
6102;DHT22;3081;50.584;7.032;2023-05-29T03:17:33;12.80;99.90
6102;DHT22;3081;50.584;7.032;2023-05-29T03:20:02;12.80;99.90
6102;DHT22;3081;50.584;7.032;2023-05-29T03:22:32;12.70;99.90
6102;DHT22;3081;50.584;7.032;2023-05-29T03:24:59;12.70;99.90
6102;DHT22;3081;50.584;7.032;2023-05-29T03:27:27;12.70;99.90
6102;DHT22;3081;50.584;7.032;2023-05-29T03:29:54;12.70;99.90
6102;DHT22;3081;50.584;7.032;2023-05-29T03:32:21;12.70;99.90
6102;DHT22;3081;50.584;7.032;2023-05-29T03:34:48;12.70;99.90
6102;DHT22;3081;50.584;7.032;2023-05-29T03:37:15;12.60;99.90
6102;DHT22;3081;50.584;7.032;2023-05-29T03:39:42;12.60;99.90
6102;DHT22;3081;50.584;7.032;2023-05-29T03:42:09;12.50;99.90
6102;DHT22;3081;50.584;7.032;2023-05-29T03:44:38;12.40;99.90
6102;DHT22;3081;50.584;7.032;2023-05-29T03:47:05;12.40;99.90
6102;DHT22;3081;50.584;7.032;2023-05-29T03:49:34;12.40;99.90
6102;DHT22;3081;50.584;7.032;2023-05-29T03:52:01;12.40;99.90
6102;DHT22;3081;50.584;7.032;2023-05-29T03:54:28;12.30;99.90
6102;DHT22;3081;50.584;7.032;2023-05-29T03:56:55;12.30;99.90
6102;DHT22;3081;50.584;7.032;2023-05-29T03:59:21;12.30;99.90
6102;DHT22;3081;50.584;7.032;2023-05-29T04:01:50;12.30;99.90
6102;DHT22;3081;50.584;7.032;2023-05-29T04:04:17;12.30;99.90
6102;DHT22;3081;50.584;7.032;2023-05-29T04:06:44;12.30;99.90
6102;DHT22;3081;50.584;7.032;2023-05-29T04:09:10;12.30;99.90
6102;DHT22;3081;50.584;7.032;2023-05-29T04:11:37;12.30;99.90
6102;DHT22;3081;50.584;7.032;2023-05-29T04:14:07;12.30;99.90
6102;DHT22;3081;50.584;7.032;2023-05-29T04:16:34;12.30;99.90
6102;DHT22;3081;50.584;7.032;2023-05-29T04:19:02;12.30;99.90
6102;DHT22;3081;50.584;7.032;2023-05-29T04:21:29;12.20;99.90
6102;DHT22;3081;50.584;7.032;2023-05-29T04:23:58;12.20;99.90
6102;DHT22;3081;50.584;7.032;2023-05-29T04:26:24;12.20;99.90
6102;DHT22;3081;50.584;7.032;2023-05-29T04:28:52;12.20;99.90
6102;DHT22;3081;50.584;7.032;2023-05-29T04:31:23;12.20;99.90
6102;DHT22;3081;50.584;7.032;2023-05-29T04:33:51;12.30;99.90
6102;DHT22;3081;50.584;7.032;2023-05-29T04:36:22;12.30;99.90
6102;DHT22;3081;50.584;7.032;2023-05-29T04:38:51;12.30;99.90
6102;DHT22;3081;50.584;7.032;2023-05-29T04:41:18;12.40;99.90
6102;DHT22;3081;50.584;7.032;2023-05-29T04:43:49;12.40;99.90
6102;DHT22;3081;50.584;7.032;2023-05-29T04:46:16;12.40;99.90
6102;DHT22;3081;50.584;7.032;2023-05-29T04:48:43;12.60;99.90
6102;DHT22;3081;50.584;7.032;2023-05-29T04:51:10;12.70;99.90
6102;DHT22;3081;50.584;7.032;2023-05-29T04:53:39;12.90;99.90
6102;DHT22;3081;50.584;7.032;2023-05-29T04:56:07;13.00;99.90
6102;DHT22;3081;50.584;7.032;2023-05-29T04:58:33;13.10;99.90
6102;DHT22;3081;50.584;7.032;2023-05-29T05:01:00;13.10;99.90
6102;DHT22;3081;50.584;7.032;2023-05-29T05:03:28;13.10;99.90
6102;DHT22;3081;50.584;7.032;2023-05-29T05:05:56;13.10;99.90
6102;DHT22;3081;50.584;7.032;2023-05-29T05:08:23;13.10;99.90
6102;DHT22;3081;50.584;7.032;2023-05-29T05:10:52;13.20;99.90
6102;DHT22;3081;50.584;7.032;2023-05-29T05:13:19;13.20;99.90
6102;DHT22;3081;50.584;7.032;2023-05-29T05:15:45;13.30;99.90
6102;DHT22;3081;50.584;7.032;2023-05-29T05:18:12;13.30;99.90
6102;DHT22;3081;50.584;7.032;2023-05-29T05:20:39;13.40;99.90
6102;DHT22;3081;50.584;7.032;2023-05-29T05:23:06;13.40;99.90
6102;DHT22;3081;50.584;7.032;2023-05-29T05:25:33;13.40;99.90
6102;DHT22;3081;50.584;7.032;2023-05-29T05:28:02;13.50;99.90
6102;DHT22;3081;50.584;7.032;2023-05-29T05:30:29;13.50;99.90
6102;DHT22;3081;50.584;7.032;2023-05-29T05:32:56;13.60;99.90
6102;DHT22;3081;50.584;7.032;2023-05-29T05:35:23;13.60;99.90
6102;DHT22;3081;50.584;7.032;2023-05-29T05:37:50;13.50;99.90
6102;DHT22;3081;50.584;7.032;2023-05-29T05:40:17;13.40;99.90
6102;DHT22;3081;50.584;7.032;2023-05-29T05:42:44;13.30;99.90
6102;DHT22;3081;50.584;7.032;2023-05-29T05:45:13;13.30;99.90
6102;DHT22;3081;50.584;7.032;2023-05-29T05:47:40;13.40;99.90
6102;DHT22;3081;50.584;7.032;2023-05-29T05:50:07;13.50;99.90
6102;DHT22;3081;50.584;7.032;2023-05-29T05:52:34;13.70;99.90
6102;DHT22;3081;50.584;7.032;2023-05-29T05:55:01;13.80;99.90
6102;DHT22;3081;50.584;7.032;2023-05-29T05:57:29;13.80;99.90
6102;DHT22;3081;50.584;7.032;2023-05-29T05:59:58;13.80;99.90
6102;DHT22;3081;50.584;7.032;2023-05-29T06:02:26;13.70;99.90
6102;DHT22;3081;50.584;7.032;2023-05-29T06:04:53;13.70;99.90
6102;DHT22;3081;50.584;7.032;2023-05-29T06:07:20;13.70;99.90
6102;DHT22;3081;50.584;7.032;2023-05-29T06:09:48;13.70;99.90
6102;DHT22;3081;50.584;7.032;2023-05-29T06:12:15;13.70;99.90
6102;DHT22;3081;50.584;7.032;2023-05-29T06:14:42;13.70;99.90
6102;DHT22;3081;50.584;7.032;2023-05-29T06:17:08;13.80;99.90
6102;DHT22;3081;50.584;7.032;2023-05-29T06:19:37;13.90;99.90
6102;DHT22;3081;50.584;7.032;2023-05-29T06:22:04;14.00;99.90
6102;DHT22;3081;50.584;7.032;2023-05-29T06:24:31;14.10;99.90
6102;DHT22;3081;50.584;7.032;2023-05-29T06:26:58;14.20;99.90
6102;DHT22;3081;50.584;7.032;2023-05-29T06:29:25;14.20;99.90
6102;DHT22;3081;50.584;7.032;2023-05-29T06:31:52;14.30;99.90
6102;DHT22;3081;50.584;7.032;2023-05-29T06:34:19;14.40;99.90
6102;DHT22;3081;50.584;7.032;2023-05-29T06:36:48;14.40;99.90
6102;DHT22;3081;50.584;7.032;2023-05-29T06:39:15;14.40;99.90
6102;DHT22;3081;50.584;7.032;2023-05-29T06:41:43;14.40;99.90
6102;DHT22;3081;50.584;7.032;2023-05-29T06:44:10;14.60;99.90
6102;DHT22;3081;50.584;7.032;2023-05-29T06:46:37;14.60;99.90
6102;DHT22;3081;50.584;7.032;2023-05-29T06:49:04;14.60;99.90
6102;DHT22;3081;50.584;7.032;2023-05-29T06:51:31;14.60;99.90
6102;DHT22;3081;50.584;7.032;2023-05-29T06:53:59;14.60;99.90
6102;DHT22;3081;50.584;7.032;2023-05-29T06:56:26;14.70;99.90
6102;DHT22;3081;50.584;7.032;2023-05-29T06:58:55;14.80;99.90
6102;DHT22;3081;50.584;7.032;2023-05-29T07:01:22;14.90;99.90
6102;DHT22;3081;50.584;7.032;2023-05-29T07:03:51;14.90;99.90
6102;DHT22;3081;50.584;7.032;2023-05-29T07:06:19;14.90;99.90
6102;DHT22;3081;50.584;7.032;2023-05-29T07:08:46;15.00;99.90
6102;DHT22;3081;50.584;7.032;2023-05-29T07:11:14;14.90;99.90
6102;DHT22;3081;50.584;7.032;2023-05-29T07:13:41;14.80;99.90
6102;DHT22;3081;50.584;7.032;2023-05-29T07:16:08;15.00;99.90
6102;DHT22;3081;50.584;7.032;2023-05-29T07:18:35;14.90;99.90
6102;DHT22;3081;50.584;7.032;2023-05-29T07:21:02;15.00;99.90
6102;DHT22;3081;50.584;7.032;2023-05-29T07:23:29;15.20;99.90
6102;DHT22;3081;50.584;7.032;2023-05-29T07:25:56;15.30;99.90
6102;DHT22;3081;50.584;7.032;2023-05-29T07:28:24;15.40;99.90
6102;DHT22;3081;50.584;7.032;2023-05-29T07:30:51;15.30;99.90
6102;DHT22;3081;50.584;7.032;2023-05-29T07:33:18;15.30;99.90
6102;DHT22;3081;50.584;7.032;2023-05-29T07:35:45;15.40;99.90
6102;DHT22;3081;50.584;7.032;2023-05-29T07:38:12;15.50;99.90
6102;DHT22;3081;50.584;7.032;2023-05-29T07:40:39;15.50;99.90
6102;DHT22;3081;50.584;7.032;2023-05-29T07:43:06;15.40;99.90
6102;DHT22;3081;50.584;7.032;2023-05-29T07:45:34;15.50;99.90
6102;DHT22;3081;50.584;7.032;2023-05-29T07:48:01;15.70;99.90
6102;DHT22;3081;50.584;7.032;2023-05-29T07:50:28;15.90;99.90
6102;DHT22;3081;50.584;7.032;2023-05-29T07:52:55;16.10;99.90
6102;DHT22;3081;50.584;7.032;2023-05-29T07:55:22;16.40;99.90
6102;DHT22;3081;50.584;7.032;2023-05-29T07:57:49;16.40;99.90
6102;DHT22;3081;50.584;7.032;2023-05-29T08:00:16;16.30;99.90
6102;DHT22;3081;50.584;7.032;2023-05-29T08:02:45;16.40;99.90
6102;DHT22;3081;50.584;7.032;2023-05-29T08:05:12;16.50;99.90
6102;DHT22;3081;50.584;7.032;2023-05-29T08:07:39;16.50;99.90
6102;DHT22;3081;50.584;7.032;2023-05-29T08:10:07;16.60;99.90
6102;DHT22;3081;50.584;7.032;2023-05-29T08:12:34;16.70;99.90
6102;DHT22;3081;50.584;7.032;2023-05-29T08:15:01;16.70;99.90
6102;DHT22;3081;50.584;7.032;2023-05-29T08:17:28;16.90;99.90
6102;DHT22;3081;50.584;7.032;2023-05-29T08:19:57;17.00;99.90
6102;DHT22;3081;50.584;7.032;2023-05-29T08:22:28;17.00;99.90
6102;DHT22;3081;50.584;7.032;2023-05-29T08:24:55;17.10;99.90
6102;DHT22;3081;50.584;7.032;2023-05-29T08:27:22;17.10;99.90
6102;DHT22;3081;50.584;7.032;2023-05-29T08:29:49;17.30;99.90
6102;DHT22;3081;50.584;7.032;2023-05-29T08:32:16;17.40;99.90
6102;DHT22;3081;50.584;7.032;2023-05-29T08:34:43;17.50;99.90
6102;DHT22;3081;50.584;7.032;2023-05-29T08:37:12;17.50;99.90
6102;DHT22;3081;50.584;7.032;2023-05-29T08:39:39;17.60;99.90
6102;DHT22;3081;50.584;7.032;2023-05-29T08:42:09;17.70;99.90
6102;DHT22;3081;50.584;7.032;2023-05-29T08:44:40;17.80;99.90
6102;DHT22;3081;50.584;7.032;2023-05-29T08:47:07;18.00;99.90
6102;DHT22;3081;50.584;7.032;2023-05-29T08:49:40;18.00;99.90
6102;DHT22;3081;50.584;7.032;2023-05-29T08:52:12;17.90;99.90
6102;DHT22;3081;50.584;7.032;2023-05-29T08:54:42;17.80;99.90
6102;DHT22;3081;50.584;7.032;2023-05-29T08:57:11;17.70;99.90
6102;DHT22;3081;50.584;7.032;2023-05-29T08:59:42;17.90;99.90
6102;DHT22;3081;50.584;7.032;2023-05-29T09:02:10;18.10;99.90
6102;DHT22;3081;50.584;7.032;2023-05-29T09:04:37;18.10;99.90
6102;DHT22;3081;50.584;7.032;2023-05-29T09:07:04;18.20;99.90
6102;DHT22;3081;50.584;7.032;2023-05-29T09:09:34;18.30;99.90
6102;DHT22;3081;50.584;7.032;2023-05-29T09:12:03;18.40;99.90
6102;DHT22;3081;50.584;7.032;2023-05-29T09:14:35;18.50;99.90
6102;DHT22;3081;50.584;7.032;2023-05-29T09:17:02;18.60;99.90
6102;DHT22;3081;50.584;7.032;2023-05-29T09:19:31;18.70;99.90
6102;DHT22;3081;50.584;7.032;2023-05-29T09:22:02;18.90;99.90
6102;DHT22;3081;50.584;7.032;2023-05-29T09:24:29;19.10;99.90
6102;DHT22;3081;50.584;7.032;2023-05-29T09:26:58;19.20;99.90
6102;DHT22;3081;50.584;7.032;2023-05-29T09:29:27;19.50;99.90
6102;DHT22;3081;50.584;7.032;2023-05-29T09:31:54;19.90;99.90
6102;DHT22;3081;50.584;7.032;2023-05-29T09:34:23;20.30;99.90
6102;DHT22;3081;50.584;7.032;2023-05-29T09:36:52;20.80;99.90
6102;DHT22;3081;50.584;7.032;2023-05-29T09:39:19;21.10;99.90
6102;DHT22;3081;50.584;7.032;2023-05-29T09:41:46;21.40;99.90
6102;DHT22;3081;50.584;7.032;2023-05-29T09:44:14;21.70;99.90
6102;DHT22;3081;50.584;7.032;2023-05-29T09:46:42;22.30;99.90
6102;DHT22;3081;50.584;7.032;2023-05-29T09:49:12;22.40;99.90
6102;DHT22;3081;50.584;7.032;2023-05-29T09:51:40;22.60;99.90
6102;DHT22;3081;50.584;7.032;2023-05-29T09:54:14;23.40;99.90
6102;DHT22;3081;50.584;7.032;2023-05-29T09:56:42;23.80;98.60
6102;DHT22;3081;50.584;7.032;2023-05-29T09:59:11;24.10;96.70
6102;DHT22;3081;50.584;7.032;2023-05-29T10:01:40;24.40;96.10
6102;DHT22;3081;50.584;7.032;2023-05-29T10:04:10;24.80;95.00
6102;DHT22;3081;50.584;7.032;2023-05-29T10:06:38;25.40;93.70
6102;DHT22;3081;50.584;7.032;2023-05-29T10:09:09;25.40;92.70
6102;DHT22;3081;50.584;7.032;2023-05-29T10:11:38;25.30;92.60
6102;DHT22;3081;50.584;7.032;2023-05-29T10:14:06;25.70;91.90
6102;DHT22;3081;50.584;7.032;2023-05-29T10:16:35;26.00;89.90
6102;DHT22;3081;50.584;7.032;2023-05-29T10:19:12;26.10;90.00
6102;DHT22;3081;50.584;7.032;2023-05-29T10:21:40;26.30;86.80
6102;DHT22;3081;50.584;7.032;2023-05-29T10:24:07;26.80;85.60
6102;DHT22;3081;50.584;7.032;2023-05-29T10:26:38;26.90;83.30
6102;DHT22;3081;50.584;7.032;2023-05-29T10:29:12;26.60;83.90
6102;DHT22;3081;50.584;7.032;2023-05-29T10:31:48;26.70;84.00
6102;DHT22;3081;50.584;7.032;2023-05-29T10:34:28;26.70;81.90
6102;DHT22;3081;50.584;7.032;2023-05-29T10:37:04;27.10;81.90
6102;DHT22;3081;50.584;7.032;2023-05-29T10:39:32;27.20;79.80
6102;DHT22;3081;50.584;7.032;2023-05-29T10:41:59;27.60;79.00
6102;DHT22;3081;50.584;7.032;2023-05-29T10:44:40;28.00;77.00
6102;DHT22;3081;50.584;7.032;2023-05-29T10:47:07;28.60;76.00
6102;DHT22;3081;50.584;7.032;2023-05-29T10:49:39;28.90;73.00
6102;DHT22;3081;50.584;7.032;2023-05-29T10:52:06;29.20;72.80
6102;DHT22;3081;50.584;7.032;2023-05-29T10:54:51;29.40;72.20
6102;DHT22;3081;50.584;7.032;2023-05-29T10:57:21;29.40;70.20
6102;DHT22;3081;50.584;7.032;2023-05-29T11:00:05;29.00;70.90
6102;DHT22;3081;50.584;7.032;2023-05-29T11:02:38;28.60;70.40
6102;DHT22;3081;50.584;7.032;2023-05-29T11:05:21;28.20;71.30
6102;DHT22;3081;50.584;7.032;2023-05-29T11:07:52;28.00;71.90
6102;DHT22;3081;50.584;7.032;2023-05-29T11:10:40;28.20;71.40
6102;DHT22;3081;50.584;7.032;2023-05-29T11:13:08;28.30;71.20
6102;DHT22;3081;50.584;7.032;2023-05-29T11:15:36;28.70;70.20
6102;DHT22;3081;50.584;7.032;2023-05-29T11:18:06;28.70;68.60
6102;DHT22;3081;50.584;7.032;2023-05-29T11:20:43;28.00;69.10
6102;DHT22;3081;50.584;7.032;2023-05-29T11:23:15;27.40;70.90
6102;DHT22;3081;50.584;7.032;2023-05-29T11:25:44;27.30;72.00
6102;DHT22;3081;50.584;7.032;2023-05-29T11:28:11;27.70;71.70
6102;DHT22;3081;50.584;7.032;2023-05-29T11:30:43;28.30;71.40
6102;DHT22;3081;50.584;7.032;2023-05-29T11:33:25;29.20;69.30
6102;DHT22;3081;50.584;7.032;2023-05-29T11:35:58;29.90;67.60
6102;DHT22;3081;50.584;7.032;2023-05-29T11:38:25;30.00;66.60
6102;DHT22;3081;50.584;7.032;2023-05-29T11:40:54;29.90;65.30
6102;DHT22;3081;50.584;7.032;2023-05-29T11:43:21;29.50;66.90
6102;DHT22;3081;50.584;7.032;2023-05-29T11:45:48;29.40;67.30
6102;DHT22;3081;50.584;7.032;2023-05-29T11:48:15;29.60;66.30
6102;DHT22;3081;50.584;7.032;2023-05-29T11:50:42;29.80;65.10
6102;DHT22;3081;50.584;7.032;2023-05-29T11:53:11;30.00;66.00
6102;DHT22;3081;50.584;7.032;2023-05-29T11:55:38;30.40;64.50
6102;DHT22;3081;50.584;7.032;2023-05-29T11:58:06;30.60;63.30
6102;DHT22;3081;50.584;7.032;2023-05-29T12:00:34;30.60;63.40
6102;DHT22;3081;50.584;7.032;2023-05-29T12:03:02;30.70;62.10
6102;DHT22;3081;50.584;7.032;2023-05-29T12:05:30;30.50;64.30
6102;DHT22;3081;50.584;7.032;2023-05-29T12:07:58;30.60;63.60
6102;DHT22;3081;50.584;7.032;2023-05-29T12:10:28;30.80;63.00
6102;DHT22;3081;50.584;7.032;2023-05-29T12:12:56;31.50;62.40
6102;DHT22;3081;50.584;7.032;2023-05-29T12:15:23;31.90;60.00
6102;DHT22;3081;50.584;7.032;2023-05-29T12:17:51;31.60;60.00
6102;DHT22;3081;50.584;7.032;2023-05-29T12:20:19;31.70;60.50
6102;DHT22;3081;50.584;7.032;2023-05-29T12:22:46;32.10;59.60
6102;DHT22;3081;50.584;7.032;2023-05-29T12:25:15;32.60;58.70
6102;DHT22;3081;50.584;7.032;2023-05-29T12:27:45;32.50;58.10
6102;DHT22;3081;50.584;7.032;2023-05-29T12:30:14;32.00;59.40
6102;DHT22;3081;50.584;7.032;2023-05-29T12:32:43;31.90;59.10
6102;DHT22;3081;50.584;7.032;2023-05-29T12:35:15;32.10;59.30
6102;DHT22;3081;50.584;7.032;2023-05-29T12:37:43;32.30;57.80
6102;DHT22;3081;50.584;7.032;2023-05-29T12:40:13;32.40;58.10
6102;DHT22;3081;50.584;7.032;2023-05-29T12:42:40;32.60;58.30
6102;DHT22;3081;50.584;7.032;2023-05-29T12:45:09;32.80;56.80
6102;DHT22;3081;50.584;7.032;2023-05-29T12:47:36;32.70;57.40
6102;DHT22;3081;50.584;7.032;2023-05-29T12:50:23;33.20;57.50
6102;DHT22;3081;50.584;7.032;2023-05-29T12:52:54;34.10;57.50
6102;DHT22;3081;50.584;7.032;2023-05-29T12:55:22;34.60;55.90
6102;DHT22;3081;50.584;7.032;2023-05-29T12:57:49;34.70;54.40
6102;DHT22;3081;50.584;7.032;2023-05-29T13:00:18;34.90;53.50
6102;DHT22;3081;50.584;7.032;2023-05-29T13:02:46;35.00;53.60
6102;DHT22;3081;50.584;7.032;2023-05-29T13:05:13;34.90;53.10
6102;DHT22;3081;50.584;7.032;2023-05-29T13:07:41;34.70;54.00
6102;DHT22;3081;50.584;7.032;2023-05-29T13:10:09;35.50;53.30
6102;DHT22;3081;50.584;7.032;2023-05-29T13:12:36;36.90;51.40
6102;DHT22;3081;50.584;7.032;2023-05-29T13:15:03;37.70;49.70
6102;DHT22;3081;50.584;7.032;2023-05-29T13:17:32;37.90;48.20
6102;DHT22;3081;50.584;7.032;2023-05-29T13:20:00;38.40;47.60
6102;DHT22;3081;50.584;7.032;2023-05-29T13:22:26;38.50;46.90
6102;DHT22;3081;50.584;7.032;2023-05-29T13:24:57;38.80;46.60
6102;DHT22;3081;50.584;7.032;2023-05-29T13:27:24;39.60;47.30
6102;DHT22;3081;50.584;7.032;2023-05-29T13:29:51;39.60;44.90
6102;DHT22;3081;50.584;7.032;2023-05-29T13:32:18;39.30;45.90
6102;DHT22;3081;50.584;7.032;2023-05-29T13:34:47;39.80;45.70
6102;DHT22;3081;50.584;7.032;2023-05-29T13:37:14;40.50;43.70
6102;DHT22;3081;50.584;7.032;2023-05-29T13:39:41;40.60;43.00
6102;DHT22;3081;50.584;7.032;2023-05-29T13:42:08;40.80;43.00
6102;DHT22;3081;50.584;7.032;2023-05-29T13:44:36;40.50;42.80
6102;DHT22;3081;50.584;7.032;2023-05-29T13:47:05;40.60;42.80
6102;DHT22;3081;50.584;7.032;2023-05-29T13:49:32;41.00;41.90
6102;DHT22;3081;50.584;7.032;2023-05-29T13:52:02;41.00;41.70
6102;DHT22;3081;50.584;7.032;2023-05-29T13:54:29;41.30;42.10
6102;DHT22;3081;50.584;7.032;2023-05-29T13:57:00;41.40;41.70
6102;DHT22;3081;50.584;7.032;2023-05-29T13:59:27;41.90;41.20
6102;DHT22;3081;50.584;7.032;2023-05-29T14:01:54;42.20;40.80
6102;DHT22;3081;50.584;7.032;2023-05-29T14:04:21;41.20;40.20
6102;DHT22;3081;50.584;7.032;2023-05-29T14:06:48;41.20;40.80
6102;DHT22;3081;50.584;7.032;2023-05-29T14:09:16;41.60;39.60
6102;DHT22;3081;50.584;7.032;2023-05-29T14:11:48;41.60;40.00
6102;DHT22;3081;50.584;7.032;2023-05-29T14:14:15;41.80;39.80
6102;DHT22;3081;50.584;7.032;2023-05-29T14:16:42;42.40;39.30
6102;DHT22;3081;50.584;7.032;2023-05-29T14:19:09;42.90;39.00
6102;DHT22;3081;50.584;7.032;2023-05-29T14:21:36;43.70;37.80
6102;DHT22;3081;50.584;7.032;2023-05-29T14:24:03;43.60;38.00
6102;DHT22;3081;50.584;7.032;2023-05-29T14:26:31;43.60;37.70
6102;DHT22;3081;50.584;7.032;2023-05-29T14:28:58;43.90;37.00
6102;DHT22;3081;50.584;7.032;2023-05-29T14:31:25;43.10;37.60
6102;DHT22;3081;50.584;7.032;2023-05-29T14:33:51;43.10;37.30
6102;DHT22;3081;50.584;7.032;2023-05-29T14:36:18;42.40;37.40
6102;DHT22;3081;50.584;7.032;2023-05-29T14:38:45;42.20;38.50
6102;DHT22;3081;50.584;7.032;2023-05-29T14:41:14;43.00;38.10
6102;DHT22;3081;50.584;7.032;2023-05-29T14:43:43;44.20;36.80
6102;DHT22;3081;50.584;7.032;2023-05-29T14:46:10;44.30;36.50
6102;DHT22;3081;50.584;7.032;2023-05-29T14:48:37;44.20;36.80
6102;DHT22;3081;50.584;7.032;2023-05-29T14:51:04;44.50;36.70
6102;DHT22;3081;50.584;7.032;2023-05-29T14:53:31;45.30;35.90
6102;DHT22;3081;50.584;7.032;2023-05-29T14:55:58;45.40;35.00
6102;DHT22;3081;50.584;7.032;2023-05-29T14:58:25;45.60;34.90
6102;DHT22;3081;50.584;7.032;2023-05-29T15:00:53;45.50;34.70
6102;DHT22;3081;50.584;7.032;2023-05-29T15:03:20;45.70;35.20
6102;DHT22;3081;50.584;7.032;2023-05-29T15:05:51;45.40;34.90
6102;DHT22;3081;50.584;7.032;2023-05-29T15:08:18;45.30;35.10
6102;DHT22;3081;50.584;7.032;2023-05-29T15:10:45;45.90;34.60
6102;DHT22;3081;50.584;7.032;2023-05-29T15:13:12;46.50;34.00
6102;DHT22;3081;50.584;7.032;2023-05-29T15:15:40;46.70;34.10
6102;DHT22;3081;50.584;7.032;2023-05-29T15:18:08;47.10;33.30
6102;DHT22;3081;50.584;7.032;2023-05-29T15:20:35;46.70;33.40
6102;DHT22;3081;50.584;7.032;2023-05-29T15:23:02;46.30;33.60
6102;DHT22;3081;50.584;7.032;2023-05-29T15:25:28;46.50;34.00
6102;DHT22;3081;50.584;7.032;2023-05-29T15:27:55;46.80;33.10
6102;DHT22;3081;50.584;7.032;2023-05-29T15:30:24;46.20;33.40
6102;DHT22;3081;50.584;7.032;2023-05-29T15:32:51;46.20;33.30
6102;DHT22;3081;50.584;7.032;2023-05-29T15:35:19;46.50;33.30
6102;DHT22;3081;50.584;7.032;2023-05-29T15:37:46;46.20;33.20
6102;DHT22;3081;50.584;7.032;2023-05-29T15:40:13;46.50;33.00
6102;DHT22;3081;50.584;7.032;2023-05-29T15:42:40;46.80;32.80
6102;DHT22;3081;50.584;7.032;2023-05-29T15:45:07;47.40;32.80
6102;DHT22;3081;50.584;7.032;2023-05-29T15:47:34;47.40;32.00
6102;DHT22;3081;50.584;7.032;2023-05-29T15:50:01;47.10;32.20
6102;DHT22;3081;50.584;7.032;2023-05-29T15:52:30;46.70;32.60
6102;DHT22;3081;50.584;7.032;2023-05-29T15:54:57;45.80;32.70
6102;DHT22;3081;50.584;7.032;2023-05-29T15:57:24;44.60;33.40
6102;DHT22;3081;50.584;7.032;2023-05-29T15:59:50;43.90;34.00
6102;DHT22;3081;50.584;7.032;2023-05-29T16:02:17;43.60;34.10
6102;DHT22;3081;50.584;7.032;2023-05-29T16:04:44;43.40;34.00
6102;DHT22;3081;50.584;7.032;2023-05-29T16:07:11;42.30;34.90
6102;DHT22;3081;50.584;7.032;2023-05-29T16:09:39;42.20;35.60